createdAt,value
2022-11-21T00:00:53.886Z,2.12
2022-11-21T00:03:20.934Z,2.14
2022-11-21T00:05:48.627Z,2.07
2022-11-21T00:08:21.127Z,1.91
2022-11-21T00:10:47.722Z,2.01
2022-11-21T00:13:16.380Z,1.88
2022-11-21T00:15:42.963Z,1.59
2022-11-21T00:18:11.423Z,1.69
2022-11-21T00:20:37.912Z,1.75
2022-11-21T00:23:04.732Z,1.72
2022-11-21T00:25:31.519Z,1.60
2022-11-21T00:27:57.947Z,1.68
2022-11-21T00:30:24.402Z,1.76
2022-11-21T00:32:51.017Z,1.79
2022-11-21T00:35:17.552Z,1.80
2022-11-21T00:37:44.027Z,1.80
2022-11-21T00:40:11.005Z,1.70
2022-11-21T00:42:37.383Z,1.74
2022-11-21T00:45:03.968Z,1.76
2022-11-21T00:47:30.344Z,1.93
2022-11-21T00:49:56.713Z,1.77
2022-11-21T00:52:23.143Z,1.72
2022-11-21T00:54:49.616Z,1.72
2022-11-21T00:57:16.009Z,1.66
2022-11-21T00:59:42.365Z,1.87
2022-11-21T01:02:08.850Z,1.76
2022-11-21T01:04:35.676Z,1.80
2022-11-21T01:07:02.136Z,1.89
2022-11-21T01:09:28.744Z,1.72
2022-11-21T01:11:56.378Z,1.83
2022-11-21T01:14:23.451Z,1.78
2022-11-21T01:16:49.864Z,1.61
2022-11-21T01:19:16.264Z,1.50
2022-11-21T01:21:42.712Z,1.57
2022-11-21T01:24:11.270Z,1.48
2022-11-21T01:26:38.052Z,1.59
2022-11-21T01:29:05.171Z,1.78
2022-11-21T01:31:31.575Z,1.71
2022-11-21T01:33:59.154Z,1.79
2022-11-21T01:36:30.849Z,1.74
2022-11-21T01:38:59.273Z,1.78
2022-11-21T01:41:33.378Z,1.74
2022-11-21T01:44:09.644Z,1.82
2022-11-21T01:46:36.077Z,1.72
2022-11-21T01:49:22.237Z,1.76
2022-11-21T01:51:57.796Z,1.75
2022-11-21T01:54:34.991Z,1.64
2022-11-21T01:57:19.871Z,1.64
2022-11-21T01:59:57.145Z,1.68
2022-11-21T02:02:27.010Z,1.71
2022-11-21T02:04:53.733Z,1.75
2022-11-21T02:07:21.432Z,1.65
2022-11-21T02:09:51.892Z,1.76
2022-11-21T02:12:23.113Z,1.81
2022-11-21T02:14:49.994Z,1.72
2022-11-21T02:17:18.171Z,1.60
2022-11-21T02:19:50.601Z,1.62
2022-11-21T02:22:52.162Z,1.61
2022-11-21T02:25:24.241Z,1.42
2022-11-21T02:27:53.809Z,1.30
2022-11-21T02:30:20.269Z,1.18
2022-11-21T02:32:47.119Z,1.08
2022-11-21T02:35:15.984Z,1.22
2022-11-21T02:37:43.143Z,1.16
2022-11-21T02:40:15.520Z,1.09
2022-11-21T02:42:51.459Z,1.10
2022-11-21T02:45:22.687Z,1.15
2022-11-21T02:47:52.660Z,1.19
2022-11-21T02:50:28.721Z,1.25
2022-11-21T02:52:57.996Z,1.26
2022-11-21T02:55:25.397Z,1.35
2022-11-21T02:57:52.613Z,1.30
2022-11-21T03:00:19.771Z,1.23
2022-11-21T03:02:46.138Z,1.21
2022-11-21T03:05:15.205Z,1.21
2022-11-21T03:07:41.799Z,1.34
2022-11-21T03:10:08.603Z,1.39
2022-11-21T03:12:41.708Z,1.21
2022-11-21T03:15:10.990Z,1.21
2022-11-21T03:17:37.868Z,1.19
2022-11-21T03:20:05.305Z,1.15
2022-11-21T03:22:32.185Z,1.30
2022-11-21T03:24:58.572Z,1.33
2022-11-21T03:27:25.063Z,1.33
2022-11-21T03:29:51.444Z,1.40
2022-11-21T03:32:17.810Z,1.43
2022-11-21T03:34:44.263Z,1.43
2022-11-21T03:37:10.643Z,1.37
2022-11-21T03:39:37.021Z,1.49
2022-11-21T03:42:03.450Z,1.55
2022-11-21T03:44:30.157Z,1.52
2022-11-21T03:46:56.620Z,1.40
2022-11-21T03:49:22.998Z,1.31
2022-11-21T03:51:49.436Z,1.43
2022-11-21T03:54:15.847Z,1.47
2022-11-21T03:56:42.207Z,1.57
2022-11-21T03:59:08.573Z,1.46
2022-11-21T04:01:36.820Z,1.62
2022-11-21T04:04:03.650Z,1.58
2022-11-21T04:06:31.375Z,1.52
2022-11-21T04:08:57.781Z,1.67
2022-11-21T04:11:24.576Z,1.67
2022-11-21T04:13:54.425Z,1.71
2022-11-21T04:16:20.817Z,1.73
2022-11-21T04:18:47.192Z,1.57
2022-11-21T04:21:13.640Z,1.71
2022-11-21T04:23:39.996Z,1.72
2022-11-21T04:26:06.391Z,1.89
2022-11-21T04:28:32.984Z,1.92
2022-11-21T04:31:09.860Z,2.00
2022-11-21T04:33:37.160Z,1.92
2022-11-21T04:36:03.587Z,1.85
2022-11-21T04:38:29.942Z,1.88
2022-11-21T04:40:56.298Z,1.93
2022-11-21T04:43:22.661Z,1.95
2022-11-21T04:45:49.039Z,1.97
2022-11-21T04:48:15.392Z,1.92
2022-11-21T04:50:41.763Z,1.98
2022-11-21T04:53:08.144Z,1.91
2022-11-21T04:55:34.513Z,1.89
2022-11-21T04:58:00.943Z,1.68
2022-11-21T05:00:27.476Z,1.48
2022-11-21T05:02:53.834Z,1.55
2022-11-21T05:05:20.444Z,1.58
2022-11-21T05:07:46.860Z,1.57
2022-11-21T05:10:13.344Z,1.63
2022-11-21T05:12:58.242Z,1.68
2022-11-21T05:15:25.173Z,1.80
2022-11-21T05:17:51.942Z,1.80
2022-11-21T05:20:18.842Z,1.76
2022-11-21T05:22:49.770Z,1.81
2022-11-21T05:25:16.547Z,1.86
2022-11-21T05:27:42.987Z,1.92
2022-11-21T05:30:10.302Z,1.96
2022-11-21T05:32:36.759Z,1.85
2022-11-21T05:37:30.801Z,1.76
2022-11-21T05:39:57.135Z,1.71
2022-11-21T05:42:43.433Z,1.75
2022-11-21T05:45:10.168Z,1.77
2022-11-21T05:47:36.501Z,1.73
2022-11-21T05:50:02.975Z,1.74
2022-11-21T05:52:29.337Z,1.72
2022-11-21T05:54:55.660Z,1.61
2022-11-21T05:57:22.004Z,1.66
2022-11-21T05:59:48.344Z,1.81
2022-11-21T06:02:33.356Z,1.86
2022-11-21T06:04:59.714Z,1.74
2022-11-21T06:07:26.127Z,1.64
2022-11-21T06:09:52.606Z,1.77
2022-11-21T06:12:24.098Z,1.81
2022-11-21T06:14:51.698Z,2.02
2022-11-21T06:17:18.029Z,2.03
2022-11-21T06:19:44.349Z,1.98
2022-11-21T06:22:10.741Z,1.94
2022-11-21T06:24:37.158Z,2.01
2022-11-21T06:27:03.504Z,2.00
2022-11-21T06:29:29.850Z,1.96
2022-11-21T06:31:56.224Z,1.94
2022-11-21T06:34:22.630Z,1.83
2022-11-21T06:36:49.535Z,1.85
2022-11-21T06:39:16.133Z,1.86
2022-11-21T06:41:42.561Z,1.91
2022-11-21T06:44:08.983Z,1.91
2022-11-21T06:46:35.358Z,1.85
2022-11-21T06:49:01.730Z,1.79
2022-11-21T06:51:28.158Z,1.91
2022-11-21T06:53:59.038Z,2.02
2022-11-21T06:56:27.061Z,2.01
2022-11-21T06:58:53.554Z,2.01
2022-11-21T07:01:20.017Z,2.12
2022-11-21T07:03:46.543Z,2.16
2022-11-21T07:06:12.915Z,2.08
2022-11-21T07:08:42.628Z,2.08
2022-11-21T07:11:24.641Z,1.98
2022-11-21T07:13:51.435Z,1.86
2022-11-21T07:16:17.799Z,1.90
2022-11-21T07:18:45.461Z,1.92
2022-11-21T07:21:11.862Z,1.97
2022-11-21T07:23:38.299Z,1.92
2022-11-21T07:26:06.603Z,2.07
2022-11-21T07:28:33.909Z,2.09
2022-11-21T07:31:01.179Z,2.07
2022-11-21T07:33:27.800Z,2.10
2022-11-21T07:35:57.807Z,2.08
2022-11-21T07:38:25.829Z,2.22
2022-11-21T07:40:52.683Z,2.33
2022-11-21T07:43:19.205Z,2.40
2022-11-21T07:45:45.553Z,2.31
2022-11-21T07:48:12.911Z,2.28
2022-11-21T07:50:39.517Z,2.40
2022-11-21T07:53:07.712Z,2.29
2022-11-21T07:55:39.103Z,2.39
2022-11-21T07:58:08.802Z,2.34
2022-11-21T08:00:36.687Z,2.43
2022-11-21T08:03:04.431Z,2.28
2022-11-21T08:05:30.802Z,2.30
2022-11-21T08:07:57.161Z,2.41
2022-11-21T08:10:23.591Z,2.56
2022-11-21T08:12:50.073Z,2.56
2022-11-21T08:15:16.502Z,2.69
2022-11-21T08:17:44.158Z,2.79
2022-11-21T08:20:11.180Z,2.82
2022-11-21T08:22:39.497Z,2.89
2022-11-21T08:25:06.545Z,2.93
2022-11-21T08:27:32.890Z,2.91
2022-11-21T08:29:59.257Z,3.10
2022-11-21T08:32:25.753Z,3.27
2022-11-21T08:34:52.150Z,3.41
2022-11-21T08:37:18.490Z,3.23
2022-11-21T08:39:44.859Z,3.25
2022-11-21T08:42:11.280Z,3.31
2022-11-21T08:44:37.666Z,3.22
2022-11-21T08:47:05.035Z,3.18
2022-11-21T08:49:31.424Z,3.11
2022-11-21T08:51:57.806Z,3.26
2022-11-21T08:54:24.595Z,3.13
2022-11-21T08:56:51.253Z,2.88
2022-11-21T08:59:17.917Z,2.76
2022-11-21T09:01:44.590Z,3.03
2022-11-21T09:04:12.447Z,3.12
2022-11-21T09:06:38.805Z,2.98
2022-11-21T09:09:06.254Z,2.97
2022-11-21T09:11:32.669Z,3.02
2022-11-21T09:14:17.855Z,2.96
2022-11-21T09:17:03.030Z,3.13
2022-11-21T09:19:29.733Z,3.16
2022-11-21T09:21:56.843Z,3.05
2022-11-21T09:24:23.199Z,3.19
2022-11-21T09:26:49.562Z,3.18
2022-11-21T09:29:16.285Z,3.22
2022-11-21T09:31:43.417Z,3.27
2022-11-21T09:34:10.028Z,3.28
2022-11-21T09:36:36.655Z,3.32
2022-11-21T09:39:03.836Z,3.32
2022-11-21T09:41:54.444Z,3.40
2022-11-21T09:44:36.007Z,3.38
2022-11-21T09:47:15.401Z,3.47
2022-11-21T09:49:44.067Z,3.43
2022-11-21T09:52:13.872Z,3.45
2022-11-21T09:54:50.142Z,3.50
2022-11-21T09:57:19.122Z,3.52
2022-11-21T09:59:47.116Z,3.52
2022-11-21T10:02:21.579Z,3.48
2022-11-21T10:04:48.420Z,3.72
2022-11-21T10:07:30.777Z,3.63
2022-11-21T10:10:04.709Z,3.61
2022-11-21T10:12:49.344Z,3.58
2022-11-21T10:15:33.943Z,3.53
2022-11-21T10:18:19.001Z,3.37
2022-11-21T10:20:54.778Z,3.51
2022-11-21T10:23:39.557Z,3.55
2022-11-21T10:26:17.097Z,3.72
2022-11-21T10:28:58.647Z,3.58
2022-11-21T10:31:25.856Z,3.76
2022-11-21T10:33:53.725Z,3.69
2022-11-21T10:36:27.476Z,3.85
2022-11-21T10:38:59.375Z,4.09
2022-11-21T10:41:31.593Z,3.89
2022-11-21T10:44:22.783Z,3.88
2022-11-21T10:46:56.813Z,4.15
2022-11-21T10:49:24.510Z,4.04
2022-11-21T10:52:02.358Z,4.14
2022-11-21T10:54:34.679Z,4.12
2022-11-21T10:57:18.755Z,4.12
2022-11-21T11:00:01.331Z,4.17
2022-11-21T11:02:28.044Z,4.33
2022-11-21T11:05:16.160Z,4.63
2022-11-21T11:07:42.808Z,4.68
2022-11-21T11:10:27.544Z,4.74
2022-11-21T11:13:38.725Z,4.73
2022-11-21T11:16:11.824Z,4.82
2022-11-21T11:18:45.408Z,4.91
2022-11-21T11:21:17.176Z,4.91
2022-11-21T11:23:44.247Z,5.09
2022-11-21T11:26:21.998Z,5.11
2022-11-21T11:28:48.688Z,5.03
2022-11-21T11:31:15.110Z,4.99
2022-11-21T11:33:47.515Z,5.01
2022-11-21T11:36:15.076Z,5.05
2022-11-21T11:39:10.763Z,4.97
2022-11-21T11:42:29.490Z,5.05
2022-11-21T11:45:32.437Z,4.91
2022-11-21T11:48:12.387Z,5.24
2022-11-21T11:50:49.310Z,5.42
2022-11-21T11:53:20.769Z,5.39
2022-11-21T11:55:53.058Z,5.33
2022-11-21T11:58:25.657Z,5.38
2022-11-21T12:01:01.069Z,5.36
2022-11-21T12:03:59.127Z,5.36
2022-11-21T12:07:10.714Z,5.35
2022-11-21T12:09:48.979Z,5.39
2022-11-21T12:12:28.207Z,5.50
2022-11-21T12:15:20.956Z,5.62
2022-11-21T12:18:13.098Z,5.79
2022-11-21T12:20:46.222Z,5.86
2022-11-21T12:23:13.270Z,6.11
2022-11-21T12:25:56.613Z,6.22
2022-11-21T12:28:48.109Z,6.38
2022-11-21T12:31:22.169Z,6.42
2022-11-21T12:33:58.713Z,6.48
2022-11-21T12:36:32.201Z,6.56
2022-11-21T12:39:29.481Z,6.60
2022-11-21T12:42:22.803Z,6.88
2022-11-21T12:45:32.162Z,6.84
2022-11-21T12:48:25.992Z,6.90
2022-11-21T12:51:35.846Z,6.82
2022-11-21T12:54:37.746Z,6.79
2022-11-21T12:57:14.133Z,6.80
2022-11-21T12:59:46.363Z,6.85
2022-11-21T13:02:18.790Z,6.87
2022-11-21T13:04:47.014Z,6.95
2022-11-21T13:07:14.074Z,7.03
2022-11-21T13:09:42.001Z,7.13
2022-11-21T13:12:34.984Z,7.06
2022-11-21T13:15:04.311Z,6.99
2022-11-21T13:17:36.613Z,6.95
2022-11-21T13:20:20.895Z,6.87
2022-11-21T13:22:47.355Z,6.78
2022-11-21T13:25:38.223Z,6.67
2022-11-21T13:28:13.655Z,6.55
2022-11-21T13:30:53.487Z,6.55
2022-11-21T13:33:35.152Z,6.66
2022-11-21T13:36:11.132Z,6.53
2022-11-21T13:38:53.645Z,6.42
2022-11-21T13:41:53.788Z,6.48
2022-11-21T13:44:32.201Z,6.40
2022-11-21T13:47:10.452Z,6.55
2022-11-21T13:49:51.035Z,6.50
2022-11-21T13:52:39.024Z,6.57
2022-11-21T13:55:25.860Z,6.70
2022-11-21T13:58:02.446Z,6.70
2022-11-21T14:00:56.196Z,6.65
2022-11-21T14:03:50.559Z,6.79
2022-11-21T14:06:32.630Z,6.92
2022-11-21T14:09:05.047Z,6.86
2022-11-21T14:11:50.886Z,6.93
2022-11-21T14:14:49.694Z,6.86
2022-11-21T14:17:41.955Z,6.82
2022-11-21T14:20:21.731Z,6.76
2022-11-21T14:23:12.494Z,6.73
2022-11-21T14:25:48.648Z,6.66
2022-11-21T14:28:17.677Z,6.69
2022-11-21T14:30:44.442Z,6.68
2022-11-21T14:33:30.088Z,6.69
2022-11-21T14:35:59.486Z,6.71
2022-11-21T14:38:26.512Z,6.69
2022-11-21T14:41:24.928Z,6.65
2022-11-21T14:43:57.235Z,6.59
2022-11-21T14:46:24.438Z,6.49
2022-11-21T14:48:52.357Z,6.45
2022-11-21T14:51:20.674Z,6.30
2022-11-21T14:53:47.948Z,6.26
2022-11-21T14:56:23.419Z,6.19
2022-11-21T14:58:51.324Z,6.16
2022-11-21T15:01:21.797Z,6.02
2022-11-21T15:03:59.320Z,5.93
2022-11-21T15:06:29.977Z,5.73
2022-11-21T15:10:19.317Z,5.72
2022-11-21T15:12:05.269Z,5.64
2022-11-21T15:14:36.338Z,5.55
2022-11-21T15:17:05.316Z,5.46
2022-11-21T15:19:32.647Z,5.37
2022-11-21T15:22:27.252Z,5.35
2022-11-21T15:25:08.409Z,5.23
2022-11-21T15:27:35.158Z,5.34
2022-11-21T15:30:20.835Z,5.43
2022-11-21T15:33:12.267Z,5.27
2022-11-21T15:35:38.538Z,5.13
2022-11-21T15:38:22.855Z,5.00
2022-11-21T15:41:04.381Z,5.11
2022-11-21T15:43:38.056Z,4.88
2022-11-21T15:46:14.205Z,4.88
2022-11-21T15:48:40.691Z,4.82
2022-11-21T15:51:09.761Z,4.81
2022-11-21T15:53:36.091Z,4.62
2022-11-21T15:56:02.417Z,4.68
2022-11-21T15:58:28.754Z,4.58
2022-11-21T16:00:55.199Z,4.37
2022-11-21T16:03:21.672Z,4.39
2022-11-21T16:05:48.093Z,4.29
2022-11-21T16:08:14.445Z,4.18
2022-11-21T16:10:40.815Z,4.15
2022-11-21T16:13:07.139Z,4.23
2022-11-21T16:15:34.638Z,4.23
2022-11-21T16:18:00.971Z,4.29
2022-11-21T16:20:28.564Z,4.39
2022-11-21T16:22:55.279Z,4.29
2022-11-21T16:25:21.635Z,4.26
2022-11-21T16:27:48.068Z,4.44
2022-11-21T16:30:14.564Z,4.50
2022-11-21T16:32:40.896Z,4.53
2022-11-21T16:35:07.629Z,4.50
2022-11-21T16:37:34.157Z,4.48
2022-11-21T16:40:00.656Z,4.45
2022-11-21T16:42:27.024Z,4.42
2022-11-21T16:44:53.405Z,4.35
2022-11-21T16:47:19.885Z,4.19
2022-11-21T16:49:48.271Z,4.24
2022-11-21T16:52:15.660Z,4.23
2022-11-21T16:54:42.064Z,4.23
2022-11-21T16:57:08.629Z,4.08
2022-11-21T16:59:35.192Z,4.29
2022-11-21T17:02:01.737Z,4.28
2022-11-21T17:04:28.102Z,4.22
2022-11-21T17:06:54.539Z,4.28
2022-11-21T17:09:21.039Z,4.18
2022-11-21T17:11:47.461Z,4.17
2022-11-21T17:14:13.883Z,4.20
2022-11-21T17:16:41.751Z,4.23
2022-11-21T17:19:10.873Z,4.25
2022-11-21T17:21:37.283Z,4.19
2022-11-21T17:24:03.669Z,4.13
2022-11-21T17:26:30.240Z,4.13
2022-11-21T17:28:58.868Z,4.16
2022-11-21T17:31:25.514Z,4.12
2022-11-21T17:33:52.294Z,4.05
2022-11-21T17:36:21.232Z,4.02
2022-11-21T17:38:47.897Z,4.12
2022-11-21T17:41:16.689Z,4.06
2022-11-21T17:43:43.810Z,3.97
2022-11-21T17:46:16.813Z,3.88
2022-11-21T17:48:43.855Z,3.90
2022-11-21T17:51:15.816Z,3.87
2022-11-21T17:53:44.105Z,3.80
2022-11-21T17:56:13.770Z,3.90
2022-11-21T17:58:40.377Z,3.94
2022-11-21T18:01:08.012Z,3.93
2022-11-21T18:03:35.592Z,3.84
2022-11-21T18:06:04.429Z,3.90
2022-11-21T18:08:44.963Z,3.86
2022-11-21T18:11:12.742Z,3.97
2022-11-21T18:13:39.602Z,3.97
2022-11-21T18:16:09.067Z,4.07
2022-11-21T18:18:36.053Z,3.98
2022-11-21T18:21:13.386Z,4.07
2022-11-21T18:23:40.117Z,4.09
2022-11-21T18:26:09.580Z,3.94
2022-11-21T18:28:36.010Z,3.93
2022-11-21T18:31:09.344Z,3.97
2022-11-21T18:33:36.602Z,4.00
2022-11-21T18:36:04.300Z,4.16
2022-11-21T18:38:48.208Z,4.13
2022-11-21T18:41:20.781Z,4.07
2022-11-21T18:43:55.131Z,4.13
2022-11-21T18:46:23.356Z,4.06
2022-11-21T18:49:04.141Z,4.16
2022-11-21T18:51:31.932Z,4.21
2022-11-21T18:53:59.969Z,4.22
2022-11-21T18:56:26.638Z,4.24
2022-11-21T18:58:58.315Z,4.26
2022-11-21T19:01:27.597Z,4.18
2022-11-21T19:03:55.670Z,4.10
2022-11-21T19:06:23.485Z,4.15
2022-11-21T19:08:52.997Z,4.03
2022-11-21T19:11:20.872Z,4.10
2022-11-21T19:13:47.886Z,4.10
2022-11-21T19:16:18.924Z,4.14
2022-11-21T19:18:59.903Z,4.06
2022-11-21T19:21:35.399Z,4.08
2022-11-21T19:24:01.802Z,4.00
2022-11-21T19:26:29.026Z,4.07
2022-11-21T19:28:55.396Z,4.02
2022-11-21T19:31:21.798Z,3.92
2022-11-21T19:33:48.156Z,3.91
2022-11-21T19:36:22.155Z,3.69
2022-11-21T19:38:50.934Z,3.73
2022-11-21T19:41:20.735Z,3.90
2022-11-21T19:43:49.477Z,3.99
2022-11-21T19:46:21.119Z,4.11
2022-11-21T19:48:52.318Z,4.00
2022-11-21T19:51:19.933Z,4.01
2022-11-21T19:53:46.884Z,4.16
2022-11-21T19:56:17.415Z,4.05
2022-11-21T19:58:44.867Z,4.01
2022-11-21T20:01:15.408Z,4.05
2022-11-21T20:03:45.208Z,4.18
2022-11-21T20:06:20.048Z,4.16
2022-11-21T20:08:55.500Z,4.05
2022-11-21T20:11:23.016Z,4.05
2022-11-21T20:13:50.470Z,4.01
2022-11-21T20:16:23.088Z,4.05
2022-11-21T20:18:50.436Z,3.98
2022-11-21T20:21:17.706Z,3.90
2022-11-21T20:23:46.086Z,4.05
2022-11-21T20:26:13.775Z,4.14
2022-11-21T20:28:40.345Z,4.05
2022-11-21T20:31:09.583Z,3.99
2022-11-21T20:33:37.521Z,4.10
2022-11-21T20:36:05.854Z,4.05
2022-11-21T20:38:32.213Z,4.07
2022-11-21T20:40:58.631Z,3.99
2022-11-21T20:43:33.389Z,3.99
2022-11-21T20:46:17.010Z,4.12
2022-11-21T20:48:46.514Z,4.33
2022-11-21T20:54:03.297Z,4.31
2022-11-21T20:56:33.338Z,4.43
2022-11-21T20:58:59.900Z,4.30
2022-11-21T21:01:27.626Z,4.31
2022-11-21T21:03:54.282Z,4.20
2022-11-21T21:06:21.039Z,4.32
2022-11-21T21:08:50.001Z,4.30
2022-11-21T21:11:44.476Z,4.30
2022-11-21T21:14:04.727Z,4.43
2022-11-21T21:16:34.255Z,4.47
2022-11-21T21:19:00.628Z,4.50
2022-11-21T21:21:28.353Z,4.44
2022-11-21T21:23:56.210Z,4.45
2022-11-21T21:26:25.619Z,4.51
2022-11-21T21:28:52.462Z,4.57
2022-11-21T21:31:20.595Z,4.64
2022-11-21T21:33:47.185Z,4.61
2022-11-21T21:36:18.747Z,4.64
2022-11-21T21:38:45.736Z,4.49
2022-11-21T21:41:13.788Z,4.55
2022-11-21T21:43:40.975Z,4.58
2022-11-21T21:46:08.008Z,4.56
2022-11-21T21:48:34.703Z,4.59
2022-11-21T21:51:03.309Z,4.52
2022-11-21T21:53:30.046Z,4.47
2022-11-21T21:56:00.634Z,4.65
2022-11-21T21:58:30.275Z,4.61
2022-11-21T22:01:10.994Z,4.56
2022-11-21T22:03:37.959Z,4.68
2022-11-21T22:06:05.732Z,4.47
2022-11-21T22:08:33.553Z,4.55
2022-11-21T22:11:07.332Z,4.62
2022-11-21T22:13:34.604Z,4.73
2022-11-21T22:16:01.634Z,4.70
2022-11-21T22:18:28.824Z,4.65
2022-11-21T22:20:55.525Z,4.62
2022-11-21T22:23:22.213Z,4.70
2022-11-21T22:25:48.975Z,4.70
2022-11-21T22:28:15.649Z,4.56
2022-11-21T22:30:42.091Z,4.69
2022-11-21T22:33:08.452Z,4.87
2022-11-21T22:35:34.926Z,4.88
2022-11-21T22:38:01.291Z,4.92
2022-11-21T22:40:27.684Z,5.04
2022-11-21T22:42:54.037Z,5.01
2022-11-21T22:45:20.387Z,5.21
2022-11-21T22:47:48.250Z,5.54
2022-11-21T22:50:15.451Z,5.55
2022-11-21T22:52:41.874Z,5.81
2022-11-21T22:55:08.701Z,6.03
2022-11-21T22:57:35.087Z,5.99
2022-11-21T23:00:02.145Z,6.19
2022-11-21T23:02:28.515Z,6.13
2022-11-21T23:04:54.908Z,6.08
2022-11-21T23:07:21.344Z,6.05
2022-11-21T23:09:47.726Z,6.09
2022-11-21T23:12:14.143Z,6.18
2022-11-21T23:14:40.481Z,6.21
2022-11-21T23:17:06.833Z,6.24
2022-11-21T23:19:33.192Z,6.34
2022-11-21T23:21:59.614Z,6.31
2022-11-21T23:24:25.949Z,6.32
2022-11-21T23:26:52.383Z,6.31
2022-11-21T23:29:18.730Z,6.21
2022-11-21T23:31:45.091Z,6.25
2022-11-21T23:34:11.645Z,6.28
2022-11-21T23:36:38.058Z,6.28
2022-11-21T23:39:04.803Z,6.31
2022-11-21T23:41:31.190Z,6.06
2022-11-21T23:43:59.675Z,6.10
2022-11-21T23:46:27.477Z,6.19
2022-11-21T23:48:53.872Z,6.18
2022-11-21T23:51:20.274Z,6.09
2022-11-21T23:53:46.792Z,6.17
2022-11-21T23:56:13.259Z,6.19
2022-11-21T23:58:39.674Z,6.20
